createdAt,value
2023-09-30T00:02:02.032Z,14.98
2023-09-30T00:07:04.535Z,14.96
2023-09-30T00:12:08.847Z,14.86
2023-09-30T00:17:11.371Z,14.77
2023-09-30T00:22:13.921Z,14.72
2023-09-30T00:27:17.830Z,14.68
2023-09-30T00:32:20.410Z,14.59
2023-09-30T00:37:23.169Z,14.48
2023-09-30T00:42:27.830Z,14.38
2023-09-30T00:47:30.463Z,14.32
2023-09-30T00:52:34.169Z,14.26
2023-09-30T00:57:39.037Z,14.22
2023-09-30T01:02:43.002Z,14.16
2023-09-30T01:07:45.650Z,14.09
2023-09-30T01:12:49.539Z,14.05
2023-09-30T01:17:52.193Z,14.01
2023-09-30T01:22:58.058Z,13.94
2023-09-30T01:28:01.005Z,13.85
2023-09-30T01:33:03.660Z,13.78
2023-09-30T01:38:07.738Z,13.73
2023-09-30T01:43:10.283Z,13.69
2023-09-30T01:48:13.116Z,13.65
2023-09-30T01:53:17.041Z,13.58
2023-09-30T01:58:19.607Z,13.52
2023-09-30T02:03:22.329Z,13.47
2023-09-30T02:08:26.374Z,13.41
2023-09-30T02:13:28.884Z,13.35
2023-09-30T02:18:33.340Z,13.30
2023-09-30T02:23:37.605Z,13.24
2023-09-30T02:28:40.162Z,13.21
2023-09-30T02:33:42.720Z,13.19
2023-09-30T02:38:47.482Z,13.17
2023-09-30T02:43:50.732Z,13.15
2023-09-30T02:48:54.708Z,13.16
2023-09-30T02:53:58.956Z,13.13
2023-09-30T02:59:02.513Z,13.10
2023-09-30T03:04:07.986Z,13.10
2023-09-30T03:09:13.688Z,13.09
2023-09-30T03:14:16.446Z,13.06
2023-09-30T03:19:18.999Z,13.04
2023-09-30T03:24:23.954Z,13.01
2023-09-30T03:29:27.444Z,13.00
2023-09-30T03:34:30.394Z,12.95
2023-09-30T03:39:34.304Z,12.96
2023-09-30T03:44:36.967Z,12.94
2023-09-30T03:49:39.828Z,12.92
2023-09-30T03:54:43.751Z,12.91
2023-09-30T03:59:47.322Z,12.89
2023-09-30T04:04:52.135Z,12.89
2023-09-30T04:09:56.478Z,12.86
2023-09-30T04:14:59.345Z,12.84
2023-09-30T04:20:01.953Z,12.82
2023-09-30T04:25:10.125Z,12.83
2023-09-30T04:30:12.994Z,12.82
2023-09-30T04:35:16.143Z,12.82
2023-09-30T04:40:21.115Z,12.81
2023-09-30T04:45:25.613Z,12.81
2023-09-30T04:50:28.430Z,12.80
2023-09-30T04:55:32.252Z,12.81
2023-09-30T05:00:36.010Z,12.81
2023-09-30T05:05:38.563Z,12.83
2023-09-30T05:10:42.392Z,12.79
2023-09-30T05:15:45.425Z,12.75
2023-09-30T05:20:48.002Z,12.73
2023-09-30T05:25:51.889Z,12.78
2023-09-30T05:30:54.724Z,12.78
2023-09-30T05:35:57.351Z,12.76
2023-09-30T05:41:02.108Z,12.76
2023-09-30T05:46:05.280Z,12.78
2023-09-30T05:51:08.070Z,12.79
2023-09-30T05:56:12.502Z,12.83
2023-09-30T06:01:19.945Z,12.88
2023-09-30T06:06:23.329Z,12.94
2023-09-30T06:11:29.422Z,13.06
2023-09-30T06:16:32.904Z,13.16
2023-09-30T06:21:35.904Z,13.25
2023-09-30T06:26:40.307Z,13.33
2023-09-30T06:31:42.943Z,13.39
2023-09-30T06:36:45.553Z,13.47
2023-09-30T06:41:49.407Z,13.53
2023-09-30T06:46:52.413Z,13.62
2023-09-30T06:51:54.946Z,13.67
2023-09-30T06:56:59.115Z,13.76
2023-09-30T07:02:01.650Z,13.82
2023-09-30T07:07:04.351Z,13.90
2023-09-30T07:12:08.513Z,13.94
2023-09-30T07:17:11.046Z,14.01
2023-09-30T07:22:14.366Z,14.07
2023-09-30T07:27:27.571Z,14.11
2023-09-30T07:32:30.863Z,14.15
2023-09-30T07:37:33.403Z,14.25
2023-09-30T07:42:37.252Z,14.33
2023-09-30T07:47:40.053Z,14.43
2023-09-30T07:52:43.349Z,14.60
2023-09-30T07:57:47.456Z,14.75
2023-09-30T08:02:51.277Z,14.82
2023-09-30T08:07:53.877Z,14.87
2023-09-30T08:12:59.205Z,15.02
2023-09-30T08:18:03.607Z,15.30
2023-09-30T08:23:06.198Z,15.54
2023-09-30T08:28:10.471Z,15.69
2023-09-30T08:33:13.014Z,15.76
2023-09-30T08:38:15.606Z,15.87
2023-09-30T08:43:25.570Z,16.07
2023-09-30T08:48:29.311Z,16.29
2023-09-30T08:53:32.426Z,16.51
2023-09-30T08:58:36.434Z,16.69
2023-09-30T09:03:40.157Z,16.85
2023-09-30T09:08:43.246Z,17.02
2023-09-30T09:13:54.504Z,17.13
2023-09-30T09:18:58.030Z,17.23
2023-09-30T09:24:00.739Z,17.35
2023-09-30T09:29:06.170Z,17.57
2023-09-30T09:34:15.749Z,17.76
2023-09-30T09:39:30.815Z,17.91
2023-09-30T09:44:37.209Z,18.10
2023-09-30T09:49:40.072Z,18.23
2023-09-30T09:54:43.253Z,18.39
2023-09-30T09:59:48.932Z,18.58
2023-09-30T10:04:51.722Z,18.69
2023-09-30T10:09:55.590Z,18.86
2023-09-30T10:14:59.500Z,18.97
2023-09-30T10:20:07.462Z,19.08
2023-09-30T10:25:35.117Z,19.19
2023-09-30T10:30:39.047Z,19.19
2023-09-30T10:35:46.274Z,19.15
2023-09-30T10:40:49.200Z,19.23
2023-09-30T10:45:53.109Z,19.40
2023-09-30T10:50:57.592Z,19.61
2023-09-30T10:56:02.210Z,19.68
2023-09-30T11:01:06.438Z,19.69
2023-09-30T11:06:12.633Z,19.77
2023-09-30T11:11:16.365Z,19.86
2023-09-30T11:16:20.264Z,19.89
2023-09-30T11:21:26.039Z,20.02
2023-09-30T11:26:33.505Z,20.13
2023-09-30T11:31:39.541Z,20.29
2023-09-30T11:36:50.127Z,20.42
2023-09-30T11:41:53.349Z,20.43
2023-09-30T11:47:00.217Z,20.33
2023-09-30T11:52:05.747Z,20.29
2023-09-30T11:57:10.715Z,20.28
2023-09-30T12:02:16.151Z,20.23
2023-09-30T12:07:19.544Z,20.33
2023-09-30T12:12:22.062Z,20.36
2023-09-30T12:17:25.906Z,20.27
2023-09-30T12:22:29.247Z,20.23
2023-09-30T12:27:31.782Z,20.19
2023-09-30T12:32:36.172Z,20.03
2023-09-30T12:37:39.623Z,20.04
2023-09-30T12:42:43.416Z,20.11
2023-09-30T12:47:48.420Z,20.05
2023-09-30T12:52:51.159Z,19.99
2023-09-30T12:57:54.418Z,20.05
2023-09-30T13:02:58.874Z,20.10
2023-09-30T13:08:01.574Z,20.08
2023-09-30T13:13:04.397Z,19.97
2023-09-30T13:18:09.090Z,20.09
2023-09-30T13:23:11.629Z,20.22
2023-09-30T13:28:14.477Z,20.22
2023-09-30T13:33:18.643Z,20.08
2023-09-30T13:38:21.274Z,20.02
2023-09-30T13:43:23.876Z,20.12
2023-09-30T13:48:27.781Z,20.09
2023-09-30T13:53:30.333Z,20.05
2023-09-30T13:58:32.944Z,20.07
2023-09-30T14:03:36.833Z,20.05
2023-09-30T14:08:39.509Z,19.94
2023-09-30T14:13:42.054Z,19.85
2023-09-30T14:18:46.240Z,19.84
2023-09-30T14:23:48.835Z,19.76
2023-09-30T14:28:51.469Z,19.64
2023-09-30T14:33:55.692Z,19.54
2023-09-30T14:39:08.589Z,19.43
2023-09-30T14:44:17.716Z,19.36
2023-09-30T14:49:21.561Z,19.39
2023-09-30T14:54:24.086Z,19.38
2023-09-30T14:59:26.833Z,19.34
2023-09-30T15:04:30.809Z,19.26
2023-09-30T15:09:33.522Z,19.16
2023-09-30T15:14:36.124Z,19.13
2023-09-30T15:19:40.082Z,19.10
2023-09-30T15:24:42.612Z,19.02
2023-09-30T15:29:45.259Z,18.98
2023-09-30T15:34:49.337Z,19.00
2023-09-30T15:39:51.954Z,18.95
2023-09-30T15:44:57.215Z,18.92
2023-09-30T15:50:01.130Z,18.90
2023-09-30T15:55:03.755Z,18.81
2023-09-30T16:00:08.957Z,18.66
2023-09-30T16:05:13.077Z,18.51
2023-09-30T16:10:16.616Z,18.38
2023-09-30T16:15:19.432Z,18.27
2023-09-30T16:20:26.213Z,18.17
2023-09-30T16:25:29.015Z,18.08
2023-09-30T16:30:31.986Z,18.00
2023-09-30T16:35:35.975Z,17.88
2023-09-30T16:40:38.564Z,17.80
2023-09-30T16:45:41.105Z,17.68
2023-09-30T16:50:45.220Z,17.62
2023-09-30T16:55:48.464Z,17.56
2023-09-30T17:00:51.044Z,17.49
2023-09-30T17:05:55.336Z,17.40
2023-09-30T17:10:57.926Z,17.32
2023-09-30T17:16:00.479Z,17.18
2023-09-30T17:21:04.475Z,17.08
2023-09-30T17:26:07.016Z,16.97
2023-09-30T17:31:10.945Z,16.81
2023-09-30T17:36:14.913Z,16.71
2023-09-30T17:41:17.434Z,16.60
2023-09-30T17:46:20.567Z,16.51
2023-09-30T17:51:24.717Z,16.37
2023-09-30T17:56:28.206Z,16.24
2023-09-30T18:01:31.431Z,16.11
2023-09-30T18:06:35.391Z,15.97
2023-09-30T18:11:38.338Z,15.88
2023-09-30T18:16:41.724Z,15.81
2023-09-30T18:21:45.721Z,15.77
2023-09-30T18:26:48.289Z,15.77
2023-09-30T18:31:50.911Z,15.72
2023-09-30T18:36:54.854Z,15.67
2023-09-30T18:41:57.410Z,15.64
2023-09-30T18:47:00.007Z,15.61
2023-09-30T18:52:04.031Z,15.54
2023-09-30T18:57:06.613Z,15.46
2023-09-30T19:02:09.869Z,15.42
2023-09-30T19:07:13.838Z,15.34
2023-09-30T19:12:16.823Z,15.29
2023-09-30T19:17:20.208Z,15.23
2023-09-30T19:22:25.123Z,15.21
2023-09-30T19:27:27.888Z,15.20
2023-09-30T19:32:30.478Z,15.19
2023-09-30T19:37:34.372Z,15.19
2023-09-30T19:42:37.326Z,15.19
2023-09-30T19:47:40.303Z,15.17
2023-09-30T19:52:44.982Z,15.18
2023-09-30T19:57:47.646Z,15.17
2023-09-30T20:02:50.578Z,15.16
2023-09-30T20:07:54.491Z,15.13
2023-09-30T20:12:57.054Z,15.15
2023-09-30T20:17:59.614Z,15.14
2023-09-30T20:23:03.563Z,15.10
2023-09-30T20:28:07.624Z,15.06
2023-09-30T20:33:10.510Z,15.06
2023-09-30T20:38:14.377Z,15.03
2023-09-30T20:43:17.280Z,15.02
2023-09-30T20:48:19.975Z,15.04
2023-09-30T20:53:24.150Z,15.00
2023-09-30T20:58:27.759Z,14.93
2023-09-30T21:03:30.313Z,14.90
2023-09-30T21:08:34.404Z,14.88
2023-09-30T21:13:37.204Z,14.86
2023-09-30T21:18:39.896Z,14.82
2023-09-30T21:23:44.186Z,14.78
2023-09-30T21:28:47.421Z,14.75
2023-09-30T21:33:50.823Z,14.74
2023-09-30T21:38:54.777Z,14.69
2023-09-30T21:43:57.427Z,14.68
2023-09-30T21:49:00.185Z,14.70
2023-09-30T21:54:04.476Z,14.72
2023-09-30T21:59:07.015Z,14.76
2023-09-30T22:04:09.914Z,14.81
2023-09-30T22:09:13.794Z,14.83
2023-09-30T22:14:16.443Z,14.84
2023-09-30T22:19:19.152Z,14.83
2023-09-30T22:24:23.039Z,14.80
2023-09-30T22:29:25.569Z,14.80
2023-09-30T22:34:28.343Z,14.77
2023-09-30T22:39:32.156Z,14.75
2023-09-30T22:44:34.683Z,14.75
2023-09-30T22:49:37.213Z,14.75
2023-09-30T22:54:41.133Z,14.76
2023-09-30T22:59:43.657Z,14.77
2023-09-30T23:04:46.646Z,14.79
2023-09-30T23:09:52.005Z,14.80
2023-09-30T23:14:54.753Z,14.80
2023-09-30T23:19:57.657Z,14.77
2023-09-30T23:25:06.076Z,14.74
2023-09-30T23:30:15.587Z,14.73
2023-09-30T23:35:22.312Z,14.73
2023-09-30T23:40:26.520Z,14.73
2023-09-30T23:45:31.818Z,14.69
2023-09-30T23:50:35.642Z,14.64
2023-09-30T23:55:39.650Z,14.63
